createdAt,value
2023-02-07T00:01:21.082Z,-0.18
2023-02-07T00:06:35.558Z,-0.17
2023-02-07T00:11:41.012Z,-0.18
2023-02-07T00:16:44.024Z,-0.17
2023-02-07T00:21:47.278Z,-0.18
2023-02-07T00:26:52.372Z,-0.18
2023-02-07T00:31:55.258Z,-0.15
2023-02-07T00:36:58.297Z,-0.16
2023-02-07T00:42:01.163Z,-0.13
2023-02-07T00:47:04.129Z,-0.11
2023-02-07T00:52:07.020Z,-0.09
2023-02-07T00:57:09.959Z,-0.10
2023-02-07T01:02:13.008Z,-0.14
2023-02-07T01:07:16.220Z,-0.16
2023-02-07T01:12:19.120Z,-0.17
2023-02-07T01:17:22.096Z,-0.16
2023-02-07T01:22:27.252Z,-0.15
2023-02-07T01:27:30.160Z,-0.15
2023-02-07T01:32:34.052Z,-0.17
2023-02-07T01:37:37.109Z,-0.16
2023-02-07T01:42:40.045Z,-0.16
2023-02-07T01:47:42.951Z,-0.19
2023-02-07T01:52:46.585Z,-0.18
2023-02-07T01:57:49.953Z,-0.17
2023-02-07T02:02:53.141Z,-0.20
2023-02-07T02:07:56.785Z,-0.17
2023-02-07T02:13:31.873Z,-0.15
2023-02-07T02:18:47.672Z,-0.15
2023-02-07T02:24:35.573Z,-0.13
2023-02-07T02:29:44.533Z,-0.12
2023-02-07T02:35:09.577Z,-0.10
2023-02-07T02:40:33.492Z,-0.10
2023-02-07T02:45:56.252Z,-0.09
2023-02-07T02:50:59.373Z,-0.13
2023-02-07T02:56:32.520Z,-0.11
2023-02-07T03:02:13.066Z,-0.12
2023-02-07T03:07:25.004Z,-0.16
2023-02-07T03:12:53.708Z,-0.18
2023-02-07T03:18:19.258Z,-0.20
2023-02-07T03:23:23.474Z,-0.18
2023-02-07T03:28:29.202Z,-0.23
2023-02-07T03:33:33.006Z,-0.24
2023-02-07T03:38:37.764Z,-0.25
2023-02-07T03:43:42.943Z,-0.23
2023-02-07T03:48:45.981Z,-0.18
2023-02-07T03:53:48.967Z,-0.19
2023-02-07T03:58:51.895Z,-0.17
2023-02-07T04:03:54.846Z,-0.16
2023-02-07T04:08:57.848Z,-0.20
2023-02-07T04:14:00.744Z,-0.22
2023-02-07T04:19:03.696Z,-0.21
2023-02-07T04:24:06.735Z,-0.22
2023-02-07T04:29:10.005Z,-0.27
2023-02-07T04:34:13.278Z,-0.29
2023-02-07T04:39:16.670Z,-0.33
2023-02-07T04:44:19.717Z,-0.33
2023-02-07T04:49:22.809Z,-0.33
2023-02-07T04:54:25.713Z,-0.31
2023-02-07T04:59:28.685Z,-0.31
2023-02-07T05:04:31.608Z,-0.33
2023-02-07T05:09:34.531Z,-0.33
2023-02-07T05:14:37.406Z,-0.35
2023-02-07T05:19:40.337Z,-0.33
2023-02-07T05:24:44.027Z,-0.31
2023-02-07T05:29:46.948Z,-0.30
2023-02-07T05:34:49.841Z,-0.29
2023-02-07T05:39:52.866Z,-0.33
2023-02-07T05:44:55.918Z,-0.35
2023-02-07T05:49:58.890Z,-0.31
2023-02-07T05:55:01.834Z,-0.29
2023-02-07T06:00:06.403Z,-0.30
2023-02-07T06:05:14.553Z,-0.24
2023-02-07T06:10:17.616Z,-0.20
2023-02-07T06:15:20.575Z,-0.19
2023-02-07T06:20:23.527Z,-0.12
2023-02-07T06:25:26.417Z,-0.17
2023-02-07T06:30:29.551Z,-0.20
2023-02-07T06:35:32.521Z,-0.21
2023-02-07T06:40:35.407Z,-0.25
2023-02-07T06:45:38.561Z,-0.25
2023-02-07T06:50:41.789Z,-0.25
2023-02-07T06:55:44.760Z,-0.27
2023-02-07T07:00:47.815Z,-0.26
2023-02-07T07:05:50.937Z,-0.25
2023-02-07T07:10:56.005Z,-0.19
2023-02-07T07:16:03.696Z,-0.10
2023-02-07T07:21:08.064Z,-0.04
2023-02-07T07:26:11.172Z,0.02
2023-02-07T07:31:14.467Z,0.12
2023-02-07T07:36:17.494Z,0.22
2023-02-07T07:41:20.511Z,0.29
2023-02-07T07:46:23.614Z,0.37
2023-02-07T07:51:26.527Z,0.43
2023-02-07T07:56:29.644Z,0.45
2023-02-07T08:01:32.598Z,0.53
2023-02-07T08:06:35.732Z,0.63
2023-02-07T08:11:38.804Z,0.71
2023-02-07T08:16:41.751Z,0.93
2023-02-07T08:21:44.946Z,1.04
2023-02-07T08:26:48.330Z,1.10
2023-02-07T08:31:51.326Z,1.15
2023-02-07T08:36:54.446Z,1.23
2023-02-07T08:41:57.391Z,1.14
2023-02-07T08:47:00.508Z,1.18
2023-02-07T08:52:03.559Z,1.21
2023-02-07T08:57:06.626Z,1.45
2023-02-07T09:02:12.626Z,1.65
2023-02-07T09:07:16.042Z,1.74
2023-02-07T09:12:19.009Z,1.64
2023-02-07T09:17:21.883Z,1.80
2023-02-07T09:22:24.884Z,2.02
2023-02-07T09:27:27.854Z,2.06
2023-02-07T09:32:30.816Z,2.12
2023-02-07T09:37:46.779Z,2.00
2023-02-07T09:43:02.883Z,1.86
2023-02-07T09:48:23.868Z,1.92
2023-02-07T09:53:43.252Z,1.99
2023-02-07T09:59:08.065Z,2.03
2023-02-07T10:04:23.199Z,1.92
2023-02-07T10:09:36.613Z,1.88
2023-02-07T10:15:21.314Z,2.10
2023-02-07T10:21:01.128Z,2.36
2023-02-07T10:26:32.946Z,2.27
2023-02-07T10:31:40.775Z,2.26
2023-02-07T10:36:49.626Z,2.46
2023-02-07T10:41:56.203Z,2.27
2023-02-07T10:47:07.702Z,2.37
2023-02-07T10:52:34.252Z,2.52
2023-02-07T10:57:37.782Z,2.64
2023-02-07T11:02:49.975Z,2.89
2023-02-07T11:08:15.195Z,3.14
2023-02-07T11:13:27.994Z,3.05
2023-02-07T11:18:44.989Z,2.86
2023-02-07T11:23:50.975Z,2.80
2023-02-07T11:29:14.840Z,3.02
2023-02-07T11:34:46.133Z,3.18
2023-02-07T11:39:52.882Z,2.81
2023-02-07T11:44:56.020Z,2.50
2023-02-07T11:50:04.857Z,2.57
2023-02-07T11:55:25.321Z,2.44
2023-02-07T12:00:30.427Z,2.11
2023-02-07T12:05:40.433Z,2.07
2023-02-07T12:10:50.586Z,2.18
2023-02-07T12:16:00.548Z,2.21
2023-02-07T12:21:18.470Z,2.25
2023-02-07T12:26:31.310Z,2.08
2023-02-07T12:32:05.504Z,2.06
2023-02-07T12:37:46.756Z,1.99
2023-02-07T12:43:00.483Z,1.98
2023-02-07T12:48:55.189Z,2.16
2023-02-07T12:54:08.490Z,2.49
2023-02-07T12:59:23.776Z,2.70
2023-02-07T13:05:15.796Z,2.88
2023-02-07T13:10:42.658Z,3.02
2023-02-07T13:16:21.201Z,3.11
2023-02-07T13:21:54.308Z,3.12
2023-02-07T13:27:13.432Z,3.08
2023-02-07T13:32:24.580Z,2.93
2023-02-07T13:37:44.478Z,2.80
2023-02-07T13:43:44.453Z,2.75
2023-02-07T13:48:57.772Z,2.64
2023-02-07T13:54:22.489Z,2.61
2023-02-07T13:59:41.320Z,2.59
2023-02-07T14:05:06.744Z,2.61
2023-02-07T14:10:48.089Z,2.54
2023-02-07T14:16:42.913Z,2.46
2023-02-07T14:21:46.769Z,2.35
2023-02-07T14:26:57.813Z,2.20
2023-02-07T14:32:26.786Z,2.01
2023-02-07T14:37:46.569Z,1.85
2023-02-07T14:43:18.999Z,1.77
2023-02-07T14:48:41.019Z,1.67
2023-02-07T14:53:50.484Z,1.50
2023-02-07T14:58:59.018Z,1.43
2023-02-07T15:04:08.046Z,1.39
2023-02-07T15:09:25.454Z,1.40
2023-02-07T15:14:34.132Z,1.34
2023-02-07T15:19:42.118Z,1.37
2023-02-07T15:24:51.396Z,1.39
2023-02-07T15:29:59.697Z,1.44
2023-02-07T15:35:17.091Z,1.45
2023-02-07T15:40:26.675Z,1.33
2023-02-07T15:45:33.495Z,1.26
2023-02-07T15:50:38.425Z,1.15
2023-02-07T15:55:44.971Z,1.07
2023-02-07T16:00:48.050Z,0.93
2023-02-07T16:06:15.665Z,0.79
2023-02-07T16:11:27.730Z,0.71
2023-02-07T16:16:47.133Z,0.59
2023-02-07T16:21:57.776Z,0.50
2023-02-07T16:27:01.149Z,0.45
2023-02-07T16:32:04.559Z,0.42
2023-02-07T16:37:07.965Z,0.42
2023-02-07T16:42:16.919Z,0.44
2023-02-07T16:47:20.118Z,0.47
2023-02-07T16:52:23.143Z,0.50
2023-02-07T16:57:26.126Z,0.53
2023-02-07T17:02:29.109Z,0.58
2023-02-07T17:07:32.068Z,0.61
2023-02-07T17:12:35.067Z,0.69
2023-02-07T17:17:38.289Z,0.82
2023-02-07T17:22:41.414Z,0.82
2023-02-07T17:27:44.512Z,0.71
2023-02-07T17:32:48.100Z,0.53
2023-02-07T17:37:53.824Z,0.48
2023-02-07T17:42:58.078Z,0.38
2023-02-07T17:48:01.685Z,0.22
2023-02-07T17:53:04.916Z,0.20
2023-02-07T17:58:07.952Z,0.33
2023-02-07T18:03:11.537Z,0.43
2023-02-07T18:08:15.204Z,0.42
2023-02-07T18:13:18.146Z,0.44
2023-02-07T18:18:21.073Z,0.33
2023-02-07T18:23:24.145Z,0.21
2023-02-07T18:28:27.373Z,0.11
2023-02-07T18:33:30.354Z,0.16
2023-02-07T18:38:33.379Z,0.27
2023-02-07T18:43:38.424Z,0.35
2023-02-07T18:48:46.258Z,0.43
2023-02-07T18:53:54.989Z,0.54
2023-02-07T18:59:11.635Z,0.58
2023-02-07T19:04:21.936Z,0.51
2023-02-07T19:09:35.689Z,0.39
2023-02-07T19:14:51.166Z,0.26
2023-02-07T19:20:17.809Z,0.19
2023-02-07T19:25:21.408Z,0.21
2023-02-07T19:30:24.899Z,0.24
2023-02-07T19:35:28.081Z,0.21
2023-02-07T19:40:31.371Z,0.28
2023-02-07T19:45:34.864Z,0.34
2023-02-07T19:50:41.174Z,0.32
2023-02-07T19:55:58.716Z,0.32
2023-02-07T20:01:05.474Z,0.32
2023-02-07T20:06:13.904Z,0.33
2023-02-07T20:11:21.159Z,0.28
2023-02-07T20:16:26.353Z,0.24
2023-02-07T20:21:34.140Z,0.18
2023-02-07T20:27:14.650Z,0.24
2023-02-07T20:32:21.319Z,0.32
2023-02-07T20:37:24.765Z,0.30
2023-02-07T20:42:34.338Z,0.30
2023-02-07T20:47:43.327Z,0.19
2023-02-07T20:52:46.524Z,0.05
2023-02-07T20:57:55.522Z,-0.03
2023-02-07T21:03:11.072Z,0.04
2023-02-07T21:08:14.581Z,0.22
2023-02-07T21:13:37.073Z,0.24
2023-02-07T21:18:50.947Z,0.31
2023-02-07T21:23:57.770Z,0.33
2023-02-07T21:29:11.620Z,0.42
2023-02-07T21:34:21.181Z,0.42
2023-02-07T21:39:30.086Z,0.45
2023-02-07T21:44:40.467Z,0.52
2023-02-07T21:49:46.089Z,0.53
2023-02-07T21:54:52.173Z,0.59
2023-02-07T21:59:55.163Z,0.58
2023-02-07T22:04:58.260Z,0.55
2023-02-07T22:10:01.302Z,0.57
2023-02-07T22:15:05.014Z,0.59
2023-02-07T22:20:09.195Z,0.62
2023-02-07T22:25:14.937Z,0.60
2023-02-07T22:30:23.422Z,0.65
2023-02-07T22:35:50.103Z,0.64
2023-02-07T22:40:56.545Z,0.73
2023-02-07T22:46:43.564Z,0.78
2023-02-07T22:51:50.510Z,0.88
2023-02-07T22:57:16.988Z,0.89
2023-02-07T23:02:25.615Z,0.92
2023-02-07T23:07:56.206Z,0.92
2023-02-07T23:12:59.510Z,0.88
2023-02-07T23:18:04.468Z,0.92
2023-02-07T23:23:07.584Z,0.94
2023-02-07T23:28:12.255Z,0.91
2023-02-07T23:33:15.532Z,0.80
2023-02-07T23:38:18.625Z,0.72
2023-02-07T23:43:21.616Z,0.62
2023-02-07T23:48:24.948Z,0.58
2023-02-07T23:53:28.870Z,0.59
2023-02-07T23:58:33.049Z,0.48
